sensor_id;sensor_type;location;lat;lon;timestamp;temperature;humidity
39889;DHT22;25563;50.844;4.308;2023-10-09T00:01:04;18.50;98.30
39889;DHT22;25563;50.844;4.308;2023-10-09T00:03:39;18.50;98.20
39889;DHT22;25563;50.844;4.308;2023-10-09T00:06:05;18.50;98.30
39889;DHT22;25563;50.844;4.308;2023-10-09T00:08:31;18.40;98.30
39889;DHT22;25563;50.844;4.308;2023-10-09T00:10:59;18.40;98.40
39889;DHT22;25563;50.844;4.308;2023-10-09T00:13:39;18.50;98.40
39889;DHT22;25563;50.844;4.308;2023-10-09T00:16:17;18.40;98.40
39889;DHT22;25563;50.844;4.308;2023-10-09T00:18:48;18.40;98.40
39889;DHT22;25563;50.844;4.308;2023-10-09T00:21:17;18.40;98.40
39889;DHT22;25563;50.844;4.308;2023-10-09T00:23:46;18.40;98.40
39889;DHT22;25563;50.844;4.308;2023-10-09T00:26:32;18.40;98.50
39889;DHT22;25563;50.844;4.308;2023-10-09T00:29:09;18.40;98.50
39889;DHT22;25563;50.844;4.308;2023-10-09T00:31:41;18.30;98.60
39889;DHT22;25563;50.844;4.308;2023-10-09T00:34:16;18.30;98.60
39889;DHT22;25563;50.844;4.308;2023-10-09T00:36:46;18.30;98.60
39889;DHT22;25563;50.844;4.308;2023-10-09T00:39:21;18.30;98.70
39889;DHT22;25563;50.844;4.308;2023-10-09T00:42:19;18.30;98.60
39889;DHT22;25563;50.844;4.308;2023-10-09T00:44:55;18.30;98.70
39889;DHT22;25563;50.844;4.308;2023-10-09T00:47:21;18.30;98.70
39889;DHT22;25563;50.844;4.308;2023-10-09T00:49:58;18.30;98.80
39889;DHT22;25563;50.844;4.308;2023-10-09T00:52:36;18.30;98.80
39889;DHT22;25563;50.844;4.308;2023-10-09T00:55:05;18.20;98.90
39889;DHT22;25563;50.844;4.308;2023-10-09T00:57:49;18.20;98.90
39889;DHT22;25563;50.844;4.308;2023-10-09T01:00:16;18.30;98.90
39889;DHT22;25563;50.844;4.308;2023-10-09T01:03:01;18.20;99.10
39889;DHT22;25563;50.844;4.308;2023-10-09T01:05:49;18.20;99.00
39889;DHT22;25563;50.844;4.308;2023-10-09T01:08:24;18.20;98.90
39889;DHT22;25563;50.844;4.308;2023-10-09T01:10:55;18.20;99.00
39889;DHT22;25563;50.844;4.308;2023-10-09T01:13:25;18.20;99.00
39889;DHT22;25563;50.844;4.308;2023-10-09T01:16:05;18.30;99.00
39889;DHT22;25563;50.844;4.308;2023-10-09T01:18:31;18.30;98.90
39889;DHT22;25563;50.844;4.308;2023-10-09T01:21:02;18.30;99.00
39889;DHT22;25563;50.844;4.308;2023-10-09T01:23:28;18.30;98.90
39889;DHT22;25563;50.844;4.308;2023-10-09T01:25:55;18.20;99.00
39889;DHT22;25563;50.844;4.308;2023-10-09T01:28:21;18.30;99.00
39889;DHT22;25563;50.844;4.308;2023-10-09T01:30:46;18.20;99.10
39889;DHT22;25563;50.844;4.308;2023-10-09T01:33:13;18.20;99.10
39889;DHT22;25563;50.844;4.308;2023-10-09T01:35:48;18.20;99.20
39889;DHT22;25563;50.844;4.308;2023-10-09T01:38:16;18.20;99.20
39889;DHT22;25563;50.844;4.308;2023-10-09T01:40:42;18.10;99.20
39889;DHT22;25563;50.844;4.308;2023-10-09T01:43:09;18.10;99.20
39889;DHT22;25563;50.844;4.308;2023-10-09T01:45:36;18.20;99.30
39889;DHT22;25563;50.844;4.308;2023-10-09T01:48:11;18.60;99.40
39889;DHT22;25563;50.844;4.308;2023-10-09T01:50:40;18.10;99.20
39889;DHT22;25563;50.844;4.308;2023-10-09T01:53:08;18.20;99.30
39889;DHT22;25563;50.844;4.308;2023-10-09T01:55:34;18.10;99.30
39889;DHT22;25563;50.844;4.308;2023-10-09T01:58:11;18.10;99.30
39889;DHT22;25563;50.844;4.308;2023-10-09T02:00:43;18.10;99.30
39889;DHT22;25563;50.844;4.308;2023-10-09T02:03:14;18.20;99.30
39889;DHT22;25563;50.844;4.308;2023-10-09T02:05:42;18.10;99.30
39889;DHT22;25563;50.844;4.308;2023-10-09T02:08:08;18.10;99.20
39889;DHT22;25563;50.844;4.308;2023-10-09T02:10:38;18.20;99.20
39889;DHT22;25563;50.844;4.308;2023-10-09T02:13:06;18.20;99.20
39889;DHT22;25563;50.844;4.308;2023-10-09T02:15:34;18.20;99.10
39889;DHT22;25563;50.844;4.308;2023-10-09T02:18:26;18.20;99.10
39889;DHT22;25563;50.844;4.308;2023-10-09T02:20:53;18.20;99.00
39889;DHT22;25563;50.844;4.308;2023-10-09T02:23:26;18.10;99.10
39889;DHT22;25563;50.844;4.308;2023-10-09T02:26:02;18.10;99.20
39889;DHT22;25563;50.844;4.308;2023-10-09T02:28:35;18.10;99.30
39889;DHT22;25563;50.844;4.308;2023-10-09T02:31:02;18.10;99.40
39889;DHT22;25563;50.844;4.308;2023-10-09T02:33:36;18.10;99.20
39889;DHT22;25563;50.844;4.308;2023-10-09T02:36:07;18.10;99.40
39889;DHT22;25563;50.844;4.308;2023-10-09T02:38:34;18.00;99.40
39889;DHT22;25563;50.844;4.308;2023-10-09T02:41:04;18.10;99.30
39889;DHT22;25563;50.844;4.308;2023-10-09T02:43:46;18.00;99.40
39889;DHT22;25563;50.844;4.308;2023-10-09T02:46:13;18.00;99.40
39889;DHT22;25563;50.844;4.308;2023-10-09T02:48:47;18.10;99.20
39889;DHT22;25563;50.844;4.308;2023-10-09T02:51:28;18.10;99.30
39889;DHT22;25563;50.844;4.308;2023-10-09T02:53:57;18.00;99.50
39889;DHT22;25563;50.844;4.308;2023-10-09T02:56:26;17.90;99.50
39889;DHT22;25563;50.844;4.308;2023-10-09T02:59:14;18.00;99.50
39889;DHT22;25563;50.844;4.308;2023-10-09T03:01:40;17.90;99.30
39889;DHT22;25563;50.844;4.308;2023-10-09T03:04:08;17.90;99.40
39889;DHT22;25563;50.844;4.308;2023-10-09T03:06:40;17.90;99.40
39889;DHT22;25563;50.844;4.308;2023-10-09T03:09:16;17.90;99.50
39889;DHT22;25563;50.844;4.308;2023-10-09T03:11:44;17.80;99.60
39889;DHT22;25563;50.844;4.308;2023-10-09T03:14:12;17.80;99.80
39889;DHT22;25563;50.844;4.308;2023-10-09T03:16:38;17.80;99.70
39889;DHT22;25563;50.844;4.308;2023-10-09T03:19:04;17.70;99.80
39889;DHT22;25563;50.844;4.308;2023-10-09T03:21:30;17.70;99.70
39889;DHT22;25563;50.844;4.308;2023-10-09T03:23:55;17.70;99.70
39889;DHT22;25563;50.844;4.308;2023-10-09T03:26:23;17.70;99.60
39889;DHT22;25563;50.844;4.308;2023-10-09T03:28:51;17.70;99.60
39889;DHT22;25563;50.844;4.308;2023-10-09T03:31:20;17.60;99.60
39889;DHT22;25563;50.844;4.308;2023-10-09T03:33:48;17.00;99.40
39889;DHT22;25563;50.844;4.308;2023-10-09T03:36:14;17.60;99.60
39889;DHT22;25563;50.844;4.308;2023-10-09T03:38:42;17.60;99.80
39889;DHT22;25563;50.844;4.308;2023-10-09T03:41:09;17.50;99.80
39889;DHT22;25563;50.844;4.308;2023-10-09T03:43:39;17.60;99.80
39889;DHT22;25563;50.844;4.308;2023-10-09T03:46:08;17.50;99.70
39889;DHT22;25563;50.844;4.308;2023-10-09T03:49:01;17.60;99.60
39889;DHT22;25563;50.844;4.308;2023-10-09T03:51:28;17.40;99.70
39889;DHT22;25563;50.844;4.308;2023-10-09T03:53:55;17.40;99.70
39889;DHT22;25563;50.844;4.308;2023-10-09T03:56:21;17.40;99.80
39889;DHT22;25563;50.844;4.308;2023-10-09T03:58:50;17.40;99.90
39889;DHT22;25563;50.844;4.308;2023-10-09T04:01:21;17.30;99.90
39889;DHT22;25563;50.844;4.308;2023-10-09T04:03:58;17.30;99.80
39889;DHT22;25563;50.844;4.308;2023-10-09T04:06:29;17.30;99.90
39889;DHT22;25563;50.844;4.308;2023-10-09T04:09:08;17.40;99.80
39889;DHT22;25563;50.844;4.308;2023-10-09T04:11:47;17.40;99.60
39889;DHT22;25563;50.844;4.308;2023-10-09T04:14:23;17.50;99.50
39889;DHT22;25563;50.844;4.308;2023-10-09T04:17:01;17.50;99.50
39889;DHT22;25563;50.844;4.308;2023-10-09T04:19:45;17.60;99.40
39889;DHT22;25563;50.844;4.308;2023-10-09T04:22:38;17.50;99.40
39889;DHT22;25563;50.844;4.308;2023-10-09T04:25:16;17.60;99.40
39889;DHT22;25563;50.844;4.308;2023-10-09T04:27:52;17.60;99.50
39889;DHT22;25563;50.844;4.308;2023-10-09T04:30:19;17.60;99.30
39889;DHT22;25563;50.844;4.308;2023-10-09T04:32:44;17.50;99.40
39889;DHT22;25563;50.844;4.308;2023-10-09T04:35:11;17.50;99.50
39889;DHT22;25563;50.844;4.308;2023-10-09T04:37:55;17.40;99.40
39889;DHT22;25563;50.844;4.308;2023-10-09T04:40:33;17.50;99.40
39889;DHT22;25563;50.844;4.308;2023-10-09T04:43:17;17.60;99.20
39889;DHT22;25563;50.844;4.308;2023-10-09T04:45:48;17.50;99.20
39889;DHT22;25563;50.844;4.308;2023-10-09T04:48:34;17.60;99.20
39889;DHT22;25563;50.844;4.308;2023-10-09T04:51:11;17.50;99.20
39889;DHT22;25563;50.844;4.308;2023-10-09T04:53:58;17.60;99.10
39889;DHT22;25563;50.844;4.308;2023-10-09T04:56:40;17.60;99.10
39889;DHT22;25563;50.844;4.308;2023-10-09T04:59:19;17.60;99.10
39889;DHT22;25563;50.844;4.308;2023-10-09T05:01:45;17.60;99.10
39889;DHT22;25563;50.844;4.308;2023-10-09T05:04:23;17.60;98.90
39889;DHT22;25563;50.844;4.308;2023-10-09T05:07:04;17.50;99.00
39889;DHT22;25563;50.844;4.308;2023-10-09T05:09:49;17.60;98.90
39889;DHT22;25563;50.844;4.308;2023-10-09T05:12:22;17.60;98.90
39889;DHT22;25563;50.844;4.308;2023-10-09T05:14:54;17.50;98.90
39889;DHT22;25563;50.844;4.308;2023-10-09T05:17:38;17.50;99.10
39889;DHT22;25563;50.844;4.308;2023-10-09T05:20:05;17.40;99.10
39889;DHT22;25563;50.844;4.308;2023-10-09T05:23:06;17.50;99.10
39889;DHT22;25563;50.844;4.308;2023-10-09T05:25:48;17.50;99.10
39889;DHT22;25563;50.844;4.308;2023-10-09T05:28:24;17.50;99.00
39889;DHT22;25563;50.844;4.308;2023-10-09T05:31:14;17.60;98.90
39889;DHT22;25563;50.844;4.308;2023-10-09T05:33:59;17.50;99.00
39889;DHT22;25563;50.844;4.308;2023-10-09T05:36:27;17.40;99.20
39889;DHT22;25563;50.844;4.308;2023-10-09T05:39:11;17.30;99.30
39889;DHT22;25563;50.844;4.308;2023-10-09T05:42:03;17.30;99.30
39889;DHT22;25563;50.844;4.308;2023-10-09T05:44:35;17.30;99.20
39889;DHT22;25563;50.844;4.308;2023-10-09T05:47:19;17.30;99.30
39889;DHT22;25563;50.844;4.308;2023-10-09T05:49:58;17.20;99.50
39889;DHT22;25563;50.844;4.308;2023-10-09T05:52:33;17.10;99.60
39889;DHT22;25563;50.844;4.308;2023-10-09T05:55:24;17.10;99.50
39889;DHT22;25563;50.844;4.308;2023-10-09T05:57:53;17.20;99.50
39889;DHT22;25563;50.844;4.308;2023-10-09T06:00:54;17.20;99.50
39889;DHT22;25563;50.844;4.308;2023-10-09T06:03:32;17.20;99.60
39889;DHT22;25563;50.844;4.308;2023-10-09T06:06:24;17.20;99.60
39889;DHT22;25563;50.844;4.308;2023-10-09T06:09:08;17.20;99.50
39889;DHT22;25563;50.844;4.308;2023-10-09T06:11:48;17.20;99.50
39889;DHT22;25563;50.844;4.308;2023-10-09T06:14:23;17.30;99.50
39889;DHT22;25563;50.844;4.308;2023-10-09T06:17:13;17.40;99.20
39889;DHT22;25563;50.844;4.308;2023-10-09T06:19:39;17.40;99.10
39889;DHT22;25563;50.844;4.308;2023-10-09T06:22:14;17.40;99.10
39889;DHT22;25563;50.844;4.308;2023-10-09T06:24:50;17.40;99.20
39889;DHT22;25563;50.844;4.308;2023-10-09T06:27:19;17.40;99.30
39889;DHT22;25563;50.844;4.308;2023-10-09T06:29:58;17.40;99.40
39889;DHT22;25563;50.844;4.308;2023-10-09T06:32:43;17.40;99.30
39889;DHT22;25563;50.844;4.308;2023-10-09T06:35:47;17.40;99.10
39889;DHT22;25563;50.844;4.308;2023-10-09T06:38:19;17.50;99.10
39889;DHT22;25563;50.844;4.308;2023-10-09T06:40:48;17.50;99.00
39889;DHT22;25563;50.844;4.308;2023-10-09T06:43:18;17.60;99.10
39889;DHT22;25563;50.844;4.308;2023-10-09T06:45:54;17.50;99.20
39889;DHT22;25563;50.844;4.308;2023-10-09T06:48:26;17.50;99.30
39889;DHT22;25563;50.844;4.308;2023-10-09T06:51:05;17.50;99.10
39889;DHT22;25563;50.844;4.308;2023-10-09T06:53:50;17.50;99.10
39889;DHT22;25563;50.844;4.308;2023-10-09T06:56:23;17.50;99.00
39889;DHT22;25563;50.844;4.308;2023-10-09T06:58:56;17.50;99.20
39889;DHT22;25563;50.844;4.308;2023-10-09T07:01:26;17.50;99.30
39889;DHT22;25563;50.844;4.308;2023-10-09T07:04:06;17.50;99.30
39889;DHT22;25563;50.844;4.308;2023-10-09T07:06:47;17.50;99.20
39889;DHT22;25563;50.844;4.308;2023-10-09T07:09:15;17.60;99.10
39889;DHT22;25563;50.844;4.308;2023-10-09T07:11:51;17.60;99.00
39889;DHT22;25563;50.844;4.308;2023-10-09T07:14:21;17.70;98.90
39889;DHT22;25563;50.844;4.308;2023-10-09T07:17:03;17.70;99.00
39889;DHT22;25563;50.844;4.308;2023-10-09T07:19:47;17.60;99.00
39889;DHT22;25563;50.844;4.308;2023-10-09T07:22:17;17.70;99.00
39889;DHT22;25563;50.844;4.308;2023-10-09T07:24:52;17.60;98.90
39889;DHT22;25563;50.844;4.308;2023-10-09T07:27:39;17.70;98.90
39889;DHT22;25563;50.844;4.308;2023-10-09T07:30:20;17.60;99.00
39889;DHT22;25563;50.844;4.308;2023-10-09T07:33:20;17.60;99.10
39889;DHT22;25563;50.844;4.308;2023-10-09T07:35:56;17.50;99.10
39889;DHT22;25563;50.844;4.308;2023-10-09T07:38:25;17.60;99.10
39889;DHT22;25563;50.844;4.308;2023-10-09T07:40:55;17.60;99.20
39889;DHT22;25563;50.844;4.308;2023-10-09T07:43:29;17.60;99.20
39889;DHT22;25563;50.844;4.308;2023-10-09T07:46:02;17.70;99.00
39889;DHT22;25563;50.844;4.308;2023-10-09T07:48:31;17.70;99.20
39889;DHT22;25563;50.844;4.308;2023-10-09T07:51:22;17.80;99.00
39889;DHT22;25563;50.844;4.308;2023-10-09T07:53:59;18.00;98.70
39889;DHT22;25563;50.844;4.308;2023-10-09T07:56:49;18.20;98.40
39889;DHT22;25563;50.844;4.308;2023-10-09T07:59:18;18.40;98.20
39889;DHT22;25563;50.844;4.308;2023-10-09T08:01:46;18.60;97.90
39889;DHT22;25563;50.844;4.308;2023-10-09T08:04:39;18.60;98.00
39889;DHT22;25563;50.844;4.308;2023-10-09T08:07:07;18.70;97.50
39889;DHT22;25563;50.844;4.308;2023-10-09T08:09:34;18.80;97.50
39889;DHT22;25563;50.844;4.308;2023-10-09T08:12:13;18.80;97.50
39889;DHT22;25563;50.844;4.308;2023-10-09T08:14:42;18.80;97.50
39889;DHT22;25563;50.844;4.308;2023-10-09T08:17:14;18.80;97.40
39889;DHT22;25563;50.844;4.308;2023-10-09T08:20:02;18.90;97.20
39889;DHT22;25563;50.844;4.308;2023-10-09T08:22:37;18.90;97.30
39889;DHT22;25563;50.844;4.308;2023-10-09T08:25:12;18.90;97.50
39889;DHT22;25563;50.844;4.308;2023-10-09T08:28:03;18.90;97.40
39889;DHT22;25563;50.844;4.308;2023-10-09T08:30:48;18.90;97.20
39889;DHT22;25563;50.844;4.308;2023-10-09T08:33:20;19.00;97.20
39889;DHT22;25563;50.844;4.308;2023-10-09T08:35:57;19.00;97.10
39889;DHT22;25563;50.844;4.308;2023-10-09T08:38:33;19.10;97.10
39889;DHT22;25563;50.844;4.308;2023-10-09T08:41:10;19.10;97.30
39889;DHT22;25563;50.844;4.308;2023-10-09T08:43:50;19.10;97.20
39889;DHT22;25563;50.844;4.308;2023-10-09T08:46:25;19.10;97.20
39889;DHT22;25563;50.844;4.308;2023-10-09T08:48:56;19.20;97.00
39889;DHT22;25563;50.844;4.308;2023-10-09T08:51:25;19.30;96.90
39889;DHT22;25563;50.844;4.308;2023-10-09T08:53:51;19.30;96.80
39889;DHT22;25563;50.844;4.308;2023-10-09T08:56:19;19.40;96.90
39889;DHT22;25563;50.844;4.308;2023-10-09T08:58:52;19.50;96.80
39889;DHT22;25563;50.844;4.308;2023-10-09T09:01:19;19.60;96.90
39889;DHT22;25563;50.844;4.308;2023-10-09T09:03:47;19.70;96.50
39889;DHT22;25563;50.844;4.308;2023-10-09T09:06:14;19.80;96.40
39889;DHT22;25563;50.844;4.308;2023-10-09T09:08:43;19.90;96.50
39889;DHT22;25563;50.844;4.308;2023-10-09T09:11:14;20.00;96.20
39889;DHT22;25563;50.844;4.308;2023-10-09T09:13:48;20.10;96.10
39889;DHT22;25563;50.844;4.308;2023-10-09T09:16:19;20.10;96.20
39889;DHT22;25563;50.844;4.308;2023-10-09T09:18:55;20.20;96.20
39889;DHT22;25563;50.844;4.308;2023-10-09T09:21:34;20.30;95.90
39889;DHT22;25563;50.844;4.308;2023-10-09T09:24:07;20.40;96.00
39889;DHT22;25563;50.844;4.308;2023-10-09T09:26:53;20.60;95.40
39889;DHT22;25563;50.844;4.308;2023-10-09T09:32:06;20.70;95.00
39889;DHT22;25563;50.844;4.308;2023-10-09T09:34:53;20.70;95.00
39889;DHT22;25563;50.844;4.308;2023-10-09T09:37:28;20.60;95.10
39889;DHT22;25563;50.844;4.308;2023-10-09T09:40:03;20.60;95.00
39889;DHT22;25563;50.844;4.308;2023-10-09T09:42:50;20.70;94.90
39889;DHT22;25563;50.844;4.308;2023-10-09T09:45:17;20.80;94.90
39889;DHT22;25563;50.844;4.308;2023-10-09T09:47:49;20.90;94.80
39889;DHT22;25563;50.844;4.308;2023-10-09T09:50:18;20.90;94.70
39889;DHT22;25563;50.844;4.308;2023-10-09T09:52:54;21.00;94.60
39889;DHT22;25563;50.844;4.308;2023-10-09T09:55:19;21.10;94.30
39889;DHT22;25563;50.844;4.308;2023-10-09T09:57:57;21.10;94.50
39889;DHT22;25563;50.844;4.308;2023-10-09T10:00:28;21.10;94.40
39889;DHT22;25563;50.844;4.308;2023-10-09T10:03:14;21.20;94.10
39889;DHT22;25563;50.844;4.308;2023-10-09T10:05:42;21.20;94.10
39889;DHT22;25563;50.844;4.308;2023-10-09T10:08:16;21.10;94.20
39889;DHT22;25563;50.844;4.308;2023-10-09T10:10:46;21.10;94.40
39889;DHT22;25563;50.844;4.308;2023-10-09T10:13:55;21.10;94.60
39889;DHT22;25563;50.844;4.308;2023-10-09T10:16:24;21.10;94.60
39889;DHT22;25563;50.844;4.308;2023-10-09T10:19:04;21.30;94.20
39889;DHT22;25563;50.844;4.308;2023-10-09T10:21:49;21.30;94.20
39889;DHT22;25563;50.844;4.308;2023-10-09T10:27:16;21.30;94.30
39889;DHT22;25563;50.844;4.308;2023-10-09T10:35:19;21.70;94.00
39889;DHT22;25563;50.844;4.308;2023-10-09T10:38:24;21.80;93.50
39889;DHT22;25563;50.844;4.308;2023-10-09T10:40:50;21.80;93.50
39889;DHT22;25563;50.844;4.308;2023-10-09T10:43:26;21.90;93.40
39889;DHT22;25563;50.844;4.308;2023-10-09T10:46:02;22.10;93.10
39889;DHT22;25563;50.844;4.308;2023-10-09T10:48:34;22.10;93.00
39889;DHT22;25563;50.844;4.308;2023-10-09T10:51:04;22.10;93.30
39889;DHT22;25563;50.844;4.308;2023-10-09T10:53:30;22.10;93.40
39889;DHT22;25563;50.844;4.308;2023-10-09T10:56:13;22.20;93.10
39889;DHT22;25563;50.844;4.308;2023-10-09T10:58:39;22.30;93.20
39889;DHT22;25563;50.844;4.308;2023-10-09T11:01:35;22.30;93.10
39889;DHT22;25563;50.844;4.308;2023-10-09T11:04:24;22.40;92.60
39889;DHT22;25563;50.844;4.308;2023-10-09T11:06:53;22.40;92.80
39889;DHT22;25563;50.844;4.308;2023-10-09T11:09:50;22.40;92.90
39889;DHT22;25563;50.844;4.308;2023-10-09T11:12:32;22.50;92.80
39889;DHT22;25563;50.844;4.308;2023-10-09T11:15:35;22.50;92.70
39889;DHT22;25563;50.844;4.308;2023-10-09T11:18:12;22.60;92.60
39889;DHT22;25563;50.844;4.308;2023-10-09T11:20:55;22.70;92.40
39889;DHT22;25563;50.844;4.308;2023-10-09T11:23:31;22.80;92.50
39889;DHT22;25563;50.844;4.308;2023-10-09T11:26:01;22.90;92.40
39889;DHT22;25563;50.844;4.308;2023-10-09T11:28:45;22.80;92.60
39889;DHT22;25563;50.844;4.308;2023-10-09T11:31:41;22.80;92.40
39889;DHT22;25563;50.844;4.308;2023-10-09T11:34:20;22.90;92.70
39889;DHT22;25563;50.844;4.308;2023-10-09T11:37:19;23.10;92.30
39889;DHT22;25563;50.844;4.308;2023-10-09T11:40:02;23.30;92.00
39889;DHT22;25563;50.844;4.308;2023-10-09T11:42:30;23.70;92.10
39889;DHT22;25563;50.844;4.308;2023-10-09T11:45:06;23.80;91.50
39889;DHT22;25563;50.844;4.308;2023-10-09T11:47:55;24.00;91.40
39889;DHT22;25563;50.844;4.308;2023-10-09T11:50:56;24.20;91.00
39889;DHT22;25563;50.844;4.308;2023-10-09T11:53:28;24.50;90.80
39889;DHT22;25563;50.844;4.308;2023-10-09T11:55:53;24.70;90.30
39889;DHT22;25563;50.844;4.308;2023-10-09T11:58:20;24.90;90.00
39889;DHT22;25563;50.844;4.308;2023-10-09T12:00:59;25.10;89.20
39889;DHT22;25563;50.844;4.308;2023-10-09T12:03:28;25.20;88.10
39889;DHT22;25563;50.844;4.308;2023-10-09T12:05:59;25.20;88.60
39889;DHT22;25563;50.844;4.308;2023-10-09T12:08:37;25.20;87.50
39889;DHT22;25563;50.844;4.308;2023-10-09T12:11:05;25.10;87.40
39889;DHT22;25563;50.844;4.308;2023-10-09T12:13:35;25.20;87.60
39889;DHT22;25563;50.844;4.308;2023-10-09T12:16:04;25.20;87.60
39889;DHT22;25563;50.844;4.308;2023-10-09T12:18:33;25.30;87.70
39889;DHT22;25563;50.844;4.308;2023-10-09T12:21:00;25.40;87.60
39889;DHT22;25563;50.844;4.308;2023-10-09T12:23:30;25.50;86.90
39889;DHT22;25563;50.844;4.308;2023-10-09T12:26:04;25.60;86.70
39889;DHT22;25563;50.844;4.308;2023-10-09T12:28:31;25.80;86.40
39889;DHT22;25563;50.844;4.308;2023-10-09T12:31:00;25.90;86.20
39889;DHT22;25563;50.844;4.308;2023-10-09T12:33:28;25.80;85.70
39889;DHT22;25563;50.844;4.308;2023-10-09T12:35:55;25.70;86.60
39889;DHT22;25563;50.844;4.308;2023-10-09T12:38:28;25.60;86.40
39889;DHT22;25563;50.844;4.308;2023-10-09T12:41:07;25.60;86.60
39889;DHT22;25563;50.844;4.308;2023-10-09T12:43:51;25.60;86.60
39889;DHT22;25563;50.844;4.308;2023-10-09T12:46:18;25.50;86.70
39889;DHT22;25563;50.844;4.308;2023-10-09T12:48:48;25.40;87.30
39889;DHT22;25563;50.844;4.308;2023-10-09T12:51:15;25.40;87.90
39889;DHT22;25563;50.844;4.308;2023-10-09T12:53:45;25.30;87.90
39889;DHT22;25563;50.844;4.308;2023-10-09T12:56:14;25.40;88.00
39889;DHT22;25563;50.844;4.308;2023-10-09T12:58:43;25.30;87.90
39889;DHT22;25563;50.844;4.308;2023-10-09T13:01:18;25.20;88.50
39889;DHT22;25563;50.844;4.308;2023-10-09T13:03:46;25.20;88.90
39889;DHT22;25563;50.844;4.308;2023-10-09T13:06:15;25.10;88.60
39889;DHT22;25563;50.844;4.308;2023-10-09T13:08:41;25.00;88.10
39889;DHT22;25563;50.844;4.308;2023-10-09T13:11:11;24.90;89.20
39889;DHT22;25563;50.844;4.308;2023-10-09T13:13:37;24.90;89.70
39889;DHT22;25563;50.844;4.308;2023-10-09T13:16:18;25.10;89.70
39889;DHT22;25563;50.844;4.308;2023-10-09T13:18:54;25.30;88.90
39889;DHT22;25563;50.844;4.308;2023-10-09T13:21:21;25.60;87.90
39889;DHT22;25563;50.844;4.308;2023-10-09T13:23:48;25.90;87.60
39889;DHT22;25563;50.844;4.308;2023-10-09T13:26:19;26.20;87.50
39889;DHT22;25563;50.844;4.308;2023-10-09T13:28:51;26.30;87.40
39889;DHT22;25563;50.844;4.308;2023-10-09T13:31:18;26.20;86.90
39889;DHT22;25563;50.844;4.308;2023-10-09T13:33:44;26.20;86.70
39889;DHT22;25563;50.844;4.308;2023-10-09T13:36:12;26.50;85.80
39889;DHT22;25563;50.844;4.308;2023-10-09T13:38:54;26.80;85.10
39889;DHT22;25563;50.844;4.308;2023-10-09T13:41:21;27.00;84.60
39889;DHT22;25563;50.844;4.308;2023-10-09T13:43:46;26.80;84.40
39889;DHT22;25563;50.844;4.308;2023-10-09T13:46:12;26.90;84.60
39889;DHT22;25563;50.844;4.308;2023-10-09T13:48:43;26.90;84.40
39889;DHT22;25563;50.844;4.308;2023-10-09T13:51:11;26.90;84.50
39889;DHT22;25563;50.844;4.308;2023-10-09T13:53:43;26.90;84.60
39889;DHT22;25563;50.844;4.308;2023-10-09T13:56:20;26.80;85.30
39889;DHT22;25563;50.844;4.308;2023-10-09T13:58:49;26.80;85.30
39889;DHT22;25563;50.844;4.308;2023-10-09T14:01:19;27.10;84.80
39889;DHT22;25563;50.844;4.308;2023-10-09T14:03:58;27.20;84.60
39889;DHT22;25563;50.844;4.308;2023-10-09T14:06:27;27.10;84.80
39889;DHT22;25563;50.844;4.308;2023-10-09T14:09:03;27.00;85.00
39889;DHT22;25563;50.844;4.308;2023-10-09T14:11:34;27.10;84.70
39889;DHT22;25563;50.844;4.308;2023-10-09T14:14:09;27.30;84.20
39889;DHT22;25563;50.844;4.308;2023-10-09T14:16:39;27.50;84.40
39889;DHT22;25563;50.844;4.308;2023-10-09T14:19:09;27.30;84.30
39889;DHT22;25563;50.844;4.308;2023-10-09T14:21:39;27.30;84.10
39889;DHT22;25563;50.844;4.308;2023-10-09T14:24:07;27.30;84.20
39889;DHT22;25563;50.844;4.308;2023-10-09T14:26:43;27.30;84.50
39889;DHT22;25563;50.844;4.308;2023-10-09T14:29:11;27.10;85.20
39889;DHT22;25563;50.844;4.308;2023-10-09T14:31:43;26.80;86.20
39889;DHT22;25563;50.844;4.308;2023-10-09T14:34:09;26.50;86.50
39889;DHT22;25563;50.844;4.308;2023-10-09T14:36:35;26.30;86.90
39889;DHT22;25563;50.844;4.308;2023-10-09T14:39:02;26.00;87.90
39889;DHT22;25563;50.844;4.308;2023-10-09T14:41:30;25.80;88.10
39889;DHT22;25563;50.844;4.308;2023-10-09T14:43:59;25.70;88.50
39889;DHT22;25563;50.844;4.308;2023-10-09T14:46:24;25.50;89.10
39889;DHT22;25563;50.844;4.308;2023-10-09T14:48:52;25.40;89.20
39889;DHT22;25563;50.844;4.308;2023-10-09T14:51:23;25.20;89.80
39889;DHT22;25563;50.844;4.308;2023-10-09T14:53:58;25.00;90.20
39889;DHT22;25563;50.844;4.308;2023-10-09T14:56:27;24.80;90.50
39889;DHT22;25563;50.844;4.308;2023-10-09T14:58:57;24.80;90.60
39889;DHT22;25563;50.844;4.308;2023-10-09T15:01:25;24.70;90.80
39889;DHT22;25563;50.844;4.308;2023-10-09T15:03:57;24.50;91.00
39889;DHT22;25563;50.844;4.308;2023-10-09T15:06:27;24.50;91.20
39889;DHT22;25563;50.844;4.308;2023-10-09T15:08:57;24.50;91.30
39889;DHT22;25563;50.844;4.308;2023-10-09T15:11:24;24.70;91.30
39889;DHT22;25563;50.844;4.308;2023-10-09T15:13:52;25.10;91.00
39889;DHT22;25563;50.844;4.308;2023-10-09T15:16:18;25.20;90.70
39889;DHT22;25563;50.844;4.308;2023-10-09T15:18:47;25.20;90.90
39889;DHT22;25563;50.844;4.308;2023-10-09T15:21:18;25.10;90.90
39889;DHT22;25563;50.844;4.308;2023-10-09T15:23:49;24.80;90.80
39889;DHT22;25563;50.844;4.308;2023-10-09T15:26:17;24.80;91.10
39889;DHT22;25563;50.844;4.308;2023-10-09T15:28:42;24.60;91.30
39889;DHT22;25563;50.844;4.308;2023-10-09T15:31:08;24.50;91.50
39889;DHT22;25563;50.844;4.308;2023-10-09T15:33:37;24.40;91.70
39889;DHT22;25563;50.844;4.308;2023-10-09T15:36:16;24.30;91.70
39889;DHT22;25563;50.844;4.308;2023-10-09T15:38:47;24.20;91.90
39889;DHT22;25563;50.844;4.308;2023-10-09T15:41:15;24.20;91.90
39889;DHT22;25563;50.844;4.308;2023-10-09T15:43:41;24.10;92.00
39889;DHT22;25563;50.844;4.308;2023-10-09T15:46:12;24.10;92.30
39889;DHT22;25563;50.844;4.308;2023-10-09T15:48:44;24.00;92.20
39889;DHT22;25563;50.844;4.308;2023-10-09T15:51:12;23.70;92.50
39889;DHT22;25563;50.844;4.308;2023-10-09T15:53:41;23.70;92.80
39889;DHT22;25563;50.844;4.308;2023-10-09T15:56:07;23.50;93.00
39889;DHT22;25563;50.844;4.308;2023-10-09T15:58:33;23.40;93.20
39889;DHT22;25563;50.844;4.308;2023-10-09T16:00:59;23.40;93.40
39889;DHT22;25563;50.844;4.308;2023-10-09T16:03:25;23.30;93.50
39889;DHT22;25563;50.844;4.308;2023-10-09T16:05:53;23.20;93.50
39889;DHT22;25563;50.844;4.308;2023-10-09T16:08:18;23.10;93.60
39889;DHT22;25563;50.844;4.308;2023-10-09T16:10:48;23.00;93.70
39889;DHT22;25563;50.844;4.308;2023-10-09T16:13:14;22.90;93.90
39889;DHT22;25563;50.844;4.308;2023-10-09T16:15:43;22.80;94.00
39889;DHT22;25563;50.844;4.308;2023-10-09T16:18:09;22.70;94.20
39889;DHT22;25563;50.844;4.308;2023-10-09T16:20:36;22.60;94.30
39889;DHT22;25563;50.844;4.308;2023-10-09T16:23:05;22.60;94.50